createdAt,value
2019-03-01T00:01:11.652Z,113.67
2019-03-01T00:03:39.797Z,132.20
2019-03-01T00:06:09.669Z,133.57
2019-03-01T00:08:57.708Z,132.13
2019-03-01T00:11:27.476Z,139.07
2019-03-01T00:14:00.198Z,138.63
2019-03-01T00:16:46.464Z,159.63
2019-03-01T00:19:16.245Z,156.00
2019-03-01T00:21:48.691Z,168.20
2019-03-01T00:24:21.433Z,156.63
2019-03-01T00:26:57.528Z,171.73
2019-03-01T00:29:27.413Z,164.50
2019-03-01T00:32:00.120Z,172.10
2019-03-01T00:34:38.883Z,178.53
2019-03-01T00:37:14.349Z,172.60
2019-03-01T00:40:00.588Z,173.67
2019-03-01T00:42:30.360Z,159.07
2019-03-01T00:44:58.608Z,176.67
2019-03-01T00:47:26.839Z,151.10
2019-03-01T00:49:55.052Z,113.50
2019-03-01T00:52:23.203Z,91.57
2019-03-01T00:54:51.387Z,76.70
2019-03-01T00:57:19.531Z,73.37
2019-03-01T00:59:47.677Z,78.00
2019-03-01T01:02:15.851Z,67.47
2019-03-01T01:04:44.373Z,68.40
2019-03-01T01:07:12.514Z,71.33
2019-03-01T01:09:40.697Z,66.47
2019-03-01T01:12:08.836Z,70.77
2019-03-01T01:14:37.140Z,62.03
2019-03-01T01:17:05.410Z,70.23
2019-03-01T01:19:33.861Z,64.87
2019-03-01T01:22:02.140Z,68.13
2019-03-01T01:24:30.332Z,69.30
2019-03-01T01:26:58.560Z,75.43
2019-03-01T01:29:27.036Z,71.63
2019-03-01T01:31:55.492Z,65.00
2019-03-01T01:34:23.642Z,79.60
2019-03-01T01:36:51.776Z,92.13
2019-03-01T01:39:20.253Z,106.53
2019-03-01T01:41:48.402Z,125.00
2019-03-01T01:44:16.545Z,133.17
2019-03-01T01:46:44.709Z,130.17
2019-03-01T01:49:12.852Z,142.73
2019-03-01T01:51:41.019Z,190.43
2019-03-01T01:54:09.258Z,186.50
2019-03-01T01:56:37.402Z,190.47
2019-03-01T01:59:05.540Z,208.87
2019-03-01T02:01:33.719Z,205.70
2019-03-01T02:04:01.858Z,218.63
2019-03-01T02:06:30.261Z,226.73
2019-03-01T02:08:58.440Z,219.27
2019-03-01T02:11:26.584Z,231.13
2019-03-01T02:13:54.736Z,249.40
2019-03-01T02:16:22.900Z,220.03
2019-03-01T02:18:57.509Z,255.87
2019-03-01T02:21:20.839Z,225.23
2019-03-01T02:23:49.016Z,217.50
2019-03-01T02:26:17.304Z,209.67
2019-03-01T02:28:45.718Z,224.90
2019-03-01T02:31:14.014Z,217.13
2019-03-01T02:33:42.168Z,216.13
2019-03-01T02:36:10.321Z,227.50
2019-03-01T02:38:38.504Z,221.70
2019-03-01T02:41:06.656Z,198.23
2019-03-01T02:43:34.780Z,197.83
2019-03-01T02:46:02.966Z,190.33
2019-03-01T02:48:31.580Z,214.07
2019-03-01T02:50:59.733Z,205.93
2019-03-01T02:53:28.166Z,202.73
2019-03-01T02:55:56.308Z,216.73
2019-03-01T02:58:24.445Z,178.93
2019-03-01T03:00:52.641Z,192.90
2019-03-01T03:03:20.778Z,182.43
2019-03-01T03:06:07.207Z,174.47
2019-03-01T03:08:35.424Z,172.47
2019-03-01T03:11:03.569Z,185.10
2019-03-01T03:13:31.745Z,168.03
2019-03-01T03:15:59.897Z,162.37
2019-03-01T03:18:29.311Z,159.60
2019-03-01T03:20:57.545Z,169.67
2019-03-01T03:23:25.895Z,146.60
2019-03-01T03:25:54.029Z,166.47
2019-03-01T03:28:22.200Z,170.50
2019-03-01T03:30:50.355Z,146.87
2019-03-01T03:33:18.528Z,152.07
2019-03-01T03:35:46.661Z,158.80
2019-03-01T03:38:14.808Z,157.90
2019-03-01T03:40:42.963Z,146.80
2019-03-01T03:43:11.121Z,156.90
2019-03-01T03:45:39.263Z,172.30
2019-03-01T03:48:07.582Z,177.00
2019-03-01T03:50:35.954Z,167.33
2019-03-01T03:53:04.094Z,182.07
2019-03-01T03:55:32.235Z,197.60
2019-03-01T03:58:00.410Z,209.47
2019-03-01T04:00:28.560Z,247.80
2019-03-01T04:02:57.924Z,254.33
2019-03-01T04:05:26.146Z,261.60
2019-03-01T04:07:54.612Z,277.83
2019-03-01T04:10:22.961Z,256.33
2019-03-01T04:12:51.217Z,291.17
2019-03-01T04:15:19.357Z,272.17
2019-03-01T04:17:47.495Z,259.10
2019-03-01T04:20:16.515Z,277.40
2019-03-01T04:22:44.668Z,298.87
2019-03-01T04:25:12.907Z,273.40
2019-03-01T04:27:41.084Z,297.17
2019-03-01T04:30:10.898Z,317.10
2019-03-01T04:32:39.036Z,300.90
2019-03-01T04:35:07.211Z,294.90
2019-03-01T04:37:35.352Z,308.03
2019-03-01T04:40:04.339Z,316.50
2019-03-01T04:42:32.584Z,311.03
2019-03-01T04:45:00.733Z,333.97
2019-03-01T04:47:28.877Z,308.63
2019-03-01T04:49:57.048Z,325.97
2019-03-01T04:52:28.993Z,314.03
2019-03-01T04:54:57.307Z,316.03
2019-03-01T04:57:25.555Z,324.07
2019-03-01T04:59:53.702Z,309.67
2019-03-01T05:02:21.860Z,319.83
2019-03-01T05:04:50.040Z,338.87
2019-03-01T05:07:18.185Z,380.67
2019-03-01T05:09:46.340Z,310.30
2019-03-01T05:12:14.711Z,326.57
2019-03-01T05:14:42.861Z,363.07
2019-03-01T05:17:11.012Z,319.87
2019-03-01T05:19:40.429Z,353.40
2019-03-01T05:22:08.586Z,331.50
2019-03-01T05:24:36.734Z,331.47
2019-03-01T05:27:04.914Z,345.00
2019-03-01T05:29:33.060Z,339.23
2019-03-01T05:32:01.205Z,344.03
2019-03-01T05:34:29.428Z,350.77
2019-03-01T05:36:57.572Z,331.70
2019-03-01T05:39:25.722Z,326.87
2019-03-01T05:41:53.888Z,338.47
2019-03-01T05:44:22.039Z,316.57
2019-03-01T05:46:50.196Z,310.07
2019-03-01T05:49:18.440Z,301.10
2019-03-01T05:51:46.795Z,303.23
2019-03-01T05:54:14.946Z,302.23
2019-03-01T05:56:43.130Z,292.30
2019-03-01T05:59:18.338Z,297.53
2019-03-01T06:01:51.062Z,311.40
2019-03-01T06:04:23.644Z,317.57
2019-03-01T06:06:53.457Z,310.20
2019-03-01T06:09:23.269Z,307.93
2019-03-01T06:11:59.037Z,324.17
2019-03-01T06:14:35.080Z,297.57
2019-03-01T06:17:10.711Z,304.03
2019-03-01T06:19:40.476Z,314.93
2019-03-01T06:22:16.248Z,315.57
2019-03-01T06:24:48.953Z,285.00
2019-03-01T06:27:19.657Z,221.73
2019-03-01T06:29:49.452Z,166.93
2019-03-01T06:32:19.271Z,142.87
2019-03-01T06:35:03.892Z,113.33
2019-03-01T06:37:51.659Z,103.10
2019-03-01T06:40:35.080Z,96.50
2019-03-01T06:43:04.866Z,96.50
2019-03-01T06:45:39.796Z,81.90
2019-03-01T06:48:10.088Z,86.03
2019-03-01T06:50:39.873Z,71.50
2019-03-01T06:53:08.749Z,74.10
2019-03-01T06:55:41.075Z,65.83
2019-03-01T06:58:12.449Z,69.07
2019-03-01T07:00:49.873Z,58.03
2019-03-01T07:03:12.025Z,60.17
2019-03-01T07:05:40.201Z,70.37
2019-03-01T07:08:09.473Z,63.43
2019-03-01T07:10:45.482Z,66.47
2019-03-01T07:13:16.539Z,83.93
2019-03-01T07:15:45.553Z,71.40
2019-03-01T07:18:14.548Z,89.03
2019-03-01T07:20:46.056Z,95.37
2019-03-01T07:23:14.029Z,82.83
2019-03-01T07:25:42.543Z,83.13
2019-03-01T07:28:11.056Z,83.17
2019-03-01T07:30:39.497Z,74.73
2019-03-01T07:33:07.690Z,72.23
2019-03-01T07:35:35.857Z,75.60
2019-03-01T07:38:04.024Z,68.23
2019-03-01T07:40:32.202Z,58.93
2019-03-01T07:43:00.342Z,63.30
2019-03-01T07:45:28.492Z,49.57
2019-03-01T07:47:56.647Z,48.40
2019-03-01T07:50:24.796Z,38.00
2019-03-01T07:52:52.984Z,43.70
2019-03-01T07:55:21.164Z,42.67
2019-03-01T07:57:49.707Z,41.17
2019-03-01T08:00:18.801Z,37.47
2019-03-01T08:02:46.995Z,42.77
2019-03-01T08:05:16.337Z,36.13
2019-03-01T08:07:55.427Z,36.93
2019-03-01T08:10:20.529Z,35.93
2019-03-01T08:12:47.510Z,22.57
2019-03-01T08:15:16.757Z,22.87
2019-03-01T08:17:44.965Z,22.97
2019-03-01T08:20:14.880Z,22.27
2019-03-01T08:22:48.772Z,18.87
2019-03-01T08:25:13.008Z,16.17
2019-03-01T08:27:41.978Z,15.97
2019-03-01T08:30:12.556Z,20.97
2019-03-01T08:32:40.721Z,17.77
2019-03-01T08:35:10.133Z,19.67
2019-03-01T08:37:38.556Z,22.23
2019-03-01T08:40:11.414Z,15.43
2019-03-01T08:42:38.182Z,16.27
2019-03-01T08:45:08.051Z,16.70
2019-03-01T08:47:36.352Z,19.47
2019-03-01T08:50:06.093Z,14.83
2019-03-01T08:52:37.275Z,14.63
2019-03-01T08:55:06.154Z,19.83
2019-03-01T08:57:43.817Z,14.97
2019-03-01T09:00:05.710Z,18.50
2019-03-01T09:02:33.973Z,23.20
2019-03-01T09:05:05.302Z,16.60
2019-03-01T09:07:31.869Z,25.70
2019-03-01T09:10:00.482Z,14.67
2019-03-01T09:12:28.609Z,15.63
2019-03-01T09:14:57.101Z,26.47
2019-03-01T09:17:25.628Z,26.20
2019-03-01T09:19:53.792Z,16.27
2019-03-01T09:22:24.168Z,17.90
2019-03-01T09:24:51.962Z,23.30
2019-03-01T09:27:20.084Z,20.10
2019-03-01T09:29:48.232Z,20.20
2019-03-01T09:32:16.424Z,14.80
2019-03-01T09:34:46.209Z,19.97
2019-03-01T09:37:14.625Z,16.10
2019-03-01T09:39:42.864Z,19.93
2019-03-01T09:42:12.356Z,18.80
2019-03-01T09:44:40.792Z,18.97
2019-03-01T09:47:08.969Z,18.07
2019-03-01T09:49:37.104Z,19.43
2019-03-01T09:52:05.241Z,13.57
2019-03-01T09:54:33.404Z,12.00
2019-03-01T09:57:01.805Z,16.40
2019-03-01T09:59:29.948Z,11.77
2019-03-01T10:01:58.288Z,14.47
2019-03-01T10:04:26.424Z,6.90
2019-03-01T10:06:54.565Z,12.30
2019-03-01T10:09:22.804Z,11.67
2019-03-01T10:11:50.947Z,10.57
2019-03-01T10:14:20.377Z,12.33
2019-03-01T10:16:50.542Z,4.07
2019-03-01T10:19:18.678Z,8.60
2019-03-01T10:21:46.864Z,9.63
2019-03-01T10:24:15.374Z,3.70
2019-03-01T10:26:43.684Z,7.70
2019-03-01T10:29:11.826Z,10.37
2019-03-01T10:31:40.389Z,6.17
2019-03-01T10:34:08.517Z,3.87
2019-03-01T10:36:36.655Z,4.57
2019-03-01T10:39:06.629Z,5.87
2019-03-01T10:41:34.771Z,4.97
2019-03-01T10:44:02.915Z,5.23
2019-03-01T10:46:31.068Z,3.67
2019-03-01T10:48:59.202Z,3.57
2019-03-01T10:51:27.336Z,6.27
2019-03-01T10:53:56.151Z,3.33
2019-03-01T10:56:24.296Z,4.17
2019-03-01T10:58:52.516Z,3.60
2019-03-01T11:01:20.692Z,4.47
2019-03-01T11:03:48.820Z,1.57
2019-03-01T11:06:16.956Z,3.03
2019-03-01T11:08:45.118Z,2.87
2019-03-01T11:11:13.266Z,4.27
2019-03-01T11:13:41.405Z,6.07
2019-03-01T11:16:09.873Z,3.77
2019-03-01T11:18:38.024Z,1.20
2019-03-01T11:21:06.170Z,2.60
2019-03-01T11:23:34.339Z,3.83
2019-03-01T11:26:02.768Z,2.70
2019-03-01T11:28:30.904Z,3.73
2019-03-01T11:30:59.095Z,2.67
2019-03-01T11:33:27.232Z,2.47
2019-03-01T11:35:55.504Z,3.80
2019-03-01T11:38:26.472Z,3.50
2019-03-01T11:40:55.888Z,3.53
2019-03-01T11:43:24.253Z,1.17
2019-03-01T11:45:52.424Z,2.20
2019-03-01T11:48:20.568Z,5.63
2019-03-01T11:50:48.831Z,2.37
2019-03-01T11:53:17.004Z,3.93
2019-03-01T11:55:45.134Z,5.30
2019-03-01T11:58:13.270Z,2.73
2019-03-01T12:00:41.436Z,2.97
2019-03-01T12:03:09.573Z,0.60
2019-03-01T12:05:37.721Z,6.07
2019-03-01T12:08:05.878Z,1.37
2019-03-01T12:10:34.188Z,1.33
2019-03-01T12:13:02.330Z,2.23
2019-03-01T12:15:30.517Z,0.73
2019-03-01T12:17:58.653Z,2.83
2019-03-01T12:20:30.533Z,6.43
2019-03-01T12:22:58.709Z,5.03
2019-03-01T12:25:27.051Z,2.77
2019-03-01T12:27:55.214Z,1.50
2019-03-01T12:30:24.081Z,0.90
2019-03-01T12:32:52.181Z,2.40
2019-03-01T12:35:20.326Z,4.93
2019-03-01T12:37:48.497Z,2.20
2019-03-01T12:40:26.065Z,3.67
2019-03-01T12:42:55.495Z,1.93
2019-03-01T12:45:23.637Z,3.33
2019-03-01T12:47:51.773Z,2.97
2019-03-01T12:50:19.943Z,1.57
2019-03-01T12:52:49.349Z,2.40
2019-03-01T12:55:24.093Z,2.10
2019-03-01T12:57:52.221Z,5.90
2019-03-01T13:00:33.079Z,1.67
2019-03-01T13:03:01.268Z,2.00
2019-03-01T13:05:30.281Z,2.17
2019-03-01T13:07:58.616Z,2.57
2019-03-01T13:10:28.380Z,3.57
2019-03-01T13:13:01.992Z,1.20
2019-03-01T13:15:32.415Z,2.37
2019-03-01T13:18:03.561Z,1.33
2019-03-01T13:20:33.724Z,5.23
2019-03-01T13:23:04.757Z,2.43
2019-03-01T13:25:34.118Z,2.90
2019-03-01T13:28:02.253Z,1.63
2019-03-01T13:30:32.643Z,2.73
2019-03-01T13:33:03.429Z,3.27
2019-03-01T13:35:31.677Z,3.17
2019-03-01T13:38:00.241Z,2.50
2019-03-01T13:40:31.867Z,3.70
2019-03-01T13:43:02.346Z,1.37
2019-03-01T13:45:33.030Z,3.83
2019-03-01T13:48:03.137Z,1.33
2019-03-01T13:50:30.960Z,1.57
2019-03-01T13:53:02.035Z,1.93
2019-03-01T13:55:32.176Z,1.43
2019-03-01T13:58:01.076Z,1.90
2019-03-01T14:00:30.901Z,1.63
2019-03-01T14:03:00.745Z,2.13
2019-03-01T14:05:31.916Z,2.73
2019-03-01T14:08:08.729Z,3.20
2019-03-01T14:10:32.917Z,3.17
2019-03-01T14:13:02.438Z,1.33
2019-03-01T14:15:30.591Z,0.60
2019-03-01T14:18:01.205Z,0.50
2019-03-01T14:20:28.957Z,1.70
2019-03-01T14:23:04.736Z,3.73
2019-03-01T14:25:33.715Z,1.20
2019-03-01T14:28:04.831Z,0.97
2019-03-01T14:30:33.423Z,1.40
2019-03-01T14:33:01.556Z,0.63
2019-03-01T14:35:29.728Z,2.77
2019-03-01T14:37:58.042Z,2.33
2019-03-01T14:40:26.181Z,0.63
2019-03-01T14:42:54.468Z,2.00
2019-03-01T14:45:25.443Z,2.50
2019-03-01T14:47:53.846Z,1.17
2019-03-01T14:50:25.112Z,0.70
2019-03-01T14:52:58.402Z,1.23
2019-03-01T14:55:38.330Z,0.97
2019-03-01T14:58:11.089Z,2.10
2019-03-01T15:00:40.881Z,0.70
2019-03-01T15:03:15.922Z,1.47
2019-03-01T15:05:43.489Z,3.33
2019-03-01T15:08:13.799Z,4.83
2019-03-01T15:10:42.291Z,1.77
2019-03-01T15:13:10.429Z,2.00
2019-03-01T15:15:39.376Z,2.37
2019-03-01T15:18:11.153Z,2.03
2019-03-01T15:20:39.357Z,5.80
2019-03-01T15:23:07.526Z,1.80
2019-03-01T15:25:35.669Z,2.83
2019-03-01T15:28:03.811Z,4.40
2019-03-01T15:30:31.983Z,3.63
2019-03-01T15:33:00.146Z,1.93
2019-03-01T15:35:28.841Z,6.20
2019-03-01T15:37:57.292Z,2.87
2019-03-01T15:40:27.852Z,4.33
2019-03-01T15:42:55.580Z,3.47
2019-03-01T15:45:23.693Z,3.07
2019-03-01T15:47:51.872Z,2.50
2019-03-01T15:50:20.004Z,1.50
2019-03-01T15:52:50.787Z,2.33
2019-03-01T15:55:19.580Z,2.27
2019-03-01T15:57:47.712Z,0.73
2019-03-01T16:00:16.864Z,1.67
2019-03-01T16:02:45.020Z,3.23
2019-03-01T16:05:13.929Z,1.50
2019-03-01T16:07:42.096Z,0.93
2019-03-01T16:10:11.332Z,2.00
2019-03-01T16:12:39.537Z,2.90
2019-03-01T16:15:09.271Z,1.60
2019-03-01T16:17:37.419Z,0.87
2019-03-01T16:20:12.617Z,1.40
2019-03-01T16:22:40.780Z,1.57
2019-03-01T16:25:10.484Z,2.20
2019-03-01T16:27:38.612Z,0.50
2019-03-01T16:30:10.940Z,2.93
2019-03-01T16:32:40.834Z,2.50
2019-03-01T16:35:10.383Z,1.57
2019-03-01T16:37:39.209Z,1.97
2019-03-01T16:40:08.988Z,2.63
2019-03-01T16:42:38.663Z,1.20
2019-03-01T16:45:08.213Z,2.47
2019-03-01T16:47:38.281Z,1.20
2019-03-01T16:50:10.012Z,1.50
2019-03-01T16:52:38.392Z,1.70
2019-03-01T16:55:11.318Z,1.40
2019-03-01T16:57:39.755Z,2.60
2019-03-01T17:00:09.544Z,2.43
2019-03-01T17:02:42.009Z,2.87
2019-03-01T17:05:08.775Z,3.53
2019-03-01T17:07:37.314Z,2.33
2019-03-01T17:10:07.070Z,4.17
2019-03-01T17:12:35.208Z,3.23
2019-03-01T17:15:04.307Z,3.23
2019-03-01T17:17:33.161Z,1.30
2019-03-01T17:20:03.676Z,3.40
2019-03-01T17:22:33.441Z,1.87
2019-03-01T17:25:01.580Z,1.47
2019-03-01T17:27:30.170Z,2.10
2019-03-01T17:29:58.312Z,2.63
2019-03-01T17:32:26.757Z,3.27
2019-03-01T17:34:54.888Z,2.20
2019-03-01T17:37:25.856Z,2.70
2019-03-01T17:39:53.156Z,2.33
2019-03-01T17:42:22.751Z,5.03
2019-03-01T17:44:50.909Z,5.47
2019-03-01T17:47:19.325Z,2.03
2019-03-01T17:49:47.500Z,2.77
2019-03-01T17:52:15.653Z,2.13
2019-03-01T17:54:43.805Z,3.17
2019-03-01T17:57:15.053Z,2.92
2019-03-01T17:59:44.601Z,3.27
2019-03-01T18:02:15.050Z,1.20
2019-03-01T18:04:42.789Z,1.50
2019-03-01T18:07:10.970Z,2.70
2019-03-01T18:09:40.300Z,3.53
2019-03-01T18:12:08.439Z,2.53
2019-03-01T18:14:36.926Z,5.47
2019-03-01T18:17:05.951Z,2.83
2019-03-01T18:19:34.094Z,0.60
2019-03-01T18:22:02.270Z,1.50
2019-03-01T18:24:30.408Z,3.10
2019-03-01T18:26:58.572Z,2.13
2019-03-01T18:29:27.110Z,3.90
2019-03-01T18:31:55.265Z,4.20
2019-03-01T18:34:23.442Z,2.90
2019-03-01T18:36:51.609Z,1.60
2019-03-01T18:39:19.788Z,2.00
2019-03-01T18:41:48.825Z,2.70
2019-03-01T18:44:16.992Z,3.23
2019-03-01T18:46:46.769Z,0.87
2019-03-01T18:49:16.750Z,0.73
2019-03-01T18:51:44.716Z,4.90
2019-03-01T18:54:12.859Z,2.73
2019-03-01T18:56:42.268Z,1.33
2019-03-01T18:59:10.441Z,2.63
2019-03-01T19:01:38.650Z,1.13
2019-03-01T19:04:07.980Z,0.97
2019-03-01T19:06:36.164Z,2.93
2019-03-01T19:09:04.983Z,2.20
2019-03-01T19:11:34.697Z,3.73
2019-03-01T19:14:04.721Z,3.03
2019-03-01T19:16:33.488Z,1.97
2019-03-01T19:19:01.613Z,2.10
2019-03-01T19:21:29.795Z,2.50
2019-03-01T19:24:01.335Z,2.77
2019-03-01T19:26:29.844Z,2.83
2019-03-01T19:29:02.697Z,2.50
2019-03-01T19:31:42.065Z,4.53
2019-03-01T19:34:16.896Z,3.57
2019-03-01T19:36:45.821Z,2.53
2019-03-01T19:39:16.967Z,1.63
2019-03-01T19:41:45.184Z,3.73
2019-03-01T19:44:15.062Z,4.33
2019-03-01T19:46:43.922Z,3.77
2019-03-01T19:49:12.845Z,3.40
2019-03-01T19:51:42.019Z,1.40
2019-03-01T19:54:10.284Z,3.33
2019-03-01T19:56:38.666Z,4.13
2019-03-01T19:59:06.810Z,1.80
2019-03-01T20:01:34.984Z,5.37
2019-03-01T20:04:03.246Z,2.30
2019-03-01T20:06:31.592Z,3.07
2019-03-01T20:09:01.638Z,4.50
2019-03-01T20:11:29.573Z,2.20
2019-03-01T20:13:57.808Z,4.93
2019-03-01T20:16:25.987Z,2.07
2019-03-01T20:18:54.245Z,4.37
2019-03-01T20:21:23.068Z,1.90
2019-03-01T20:23:51.331Z,2.60
2019-03-01T20:26:19.470Z,2.33
2019-03-01T20:28:50.223Z,2.90
2019-03-01T20:31:17.462Z,2.47
2019-03-01T20:33:45.597Z,2.87
2019-03-01T20:36:17.468Z,2.23
2019-03-01T20:38:43.637Z,3.63
2019-03-01T20:41:11.765Z,2.60
2019-03-01T20:43:41.720Z,4.13
2019-03-01T20:46:09.801Z,3.40
2019-03-01T20:48:37.936Z,5.57
2019-03-01T20:51:06.307Z,3.67
2019-03-01T20:53:34.908Z,3.43
2019-03-01T20:56:03.121Z,5.60
2019-03-01T20:58:31.497Z,4.80
2019-03-01T21:01:01.950Z,5.60
2019-03-01T21:03:29.945Z,5.40
2019-03-01T21:06:01.617Z,8.77
2019-03-01T21:08:29.800Z,3.43
2019-03-01T21:10:58.333Z,6.87
2019-03-01T21:13:26.468Z,3.80
2019-03-01T21:15:54.628Z,3.20
2019-03-01T21:18:22.777Z,4.57
2019-03-01T21:20:53.780Z,5.77
2019-03-01T21:23:21.398Z,4.13
2019-03-01T21:25:49.543Z,2.77
2019-03-01T21:28:17.683Z,5.37
2019-03-01T21:30:45.861Z,3.03
2019-03-01T21:33:14.071Z,4.13
2019-03-01T21:35:42.201Z,2.57
2019-03-01T21:38:13.930Z,4.90
2019-03-01T21:40:40.720Z,6.10
2019-03-01T21:43:08.856Z,2.33
2019-03-01T21:45:37.065Z,3.57
2019-03-01T21:48:05.192Z,2.40
2019-03-01T21:50:33.450Z,4.40
2019-03-01T21:53:05.396Z,2.63
2019-03-01T21:55:32.848Z,5.70
2019-03-01T21:58:03.409Z,2.93
2019-03-01T22:00:31.604Z,4.83
2019-03-01T22:02:59.753Z,3.07
2019-03-01T22:05:28.022Z,3.47
2019-03-01T22:07:56.187Z,7.13
2019-03-01T22:10:24.330Z,4.30
2019-03-01T22:12:52.461Z,4.90
2019-03-01T22:15:25.583Z,3.03
2019-03-01T22:17:52.096Z,8.87
2019-03-01T22:20:20.767Z,2.57
2019-03-01T22:22:48.934Z,4.80
2019-03-01T22:25:17.188Z,6.10
2019-03-01T22:27:45.333Z,5.80
2019-03-01T22:30:14.671Z,8.67
2019-03-01T22:32:45.500Z,4.83
2019-03-01T22:35:14.566Z,4.57
2019-03-01T22:37:42.740Z,3.63
2019-03-01T22:40:11.241Z,4.37
2019-03-01T22:42:39.381Z,4.20
2019-03-01T22:45:10.391Z,3.37
2019-03-01T22:47:38.959Z,5.47
2019-03-01T22:50:11.173Z,8.00
2019-03-01T22:52:39.336Z,4.67
2019-03-01T22:55:08.680Z,6.93
2019-03-01T22:57:36.816Z,4.83
2019-03-01T23:00:06.601Z,7.03
2019-03-01T23:02:34.744Z,3.63
2019-03-01T23:05:03.863Z,9.23
2019-03-01T23:07:33.017Z,7.67
2019-03-01T23:10:01.153Z,5.37
2019-03-01T23:12:29.292Z,8.00
2019-03-01T23:14:57.610Z,9.67
2019-03-01T23:17:27.618Z,6.07
2019-03-01T23:19:55.936Z,6.67
2019-03-01T23:22:24.107Z,6.70
2019-03-01T23:24:52.446Z,7.57
2019-03-01T23:27:20.572Z,6.07
2019-03-01T23:29:51.029Z,8.83
2019-03-01T23:32:18.846Z,11.27
2019-03-01T23:34:47.057Z,10.90
2019-03-01T23:37:15.228Z,7.90
2019-03-01T23:39:43.365Z,7.63
2019-03-01T23:42:11.505Z,7.00
2019-03-01T23:44:41.496Z,6.87
2019-03-01T23:47:09.442Z,10.90
2019-03-01T23:49:37.584Z,10.23
2019-03-01T23:52:05.750Z,7.43
2019-03-01T23:54:33.887Z,8.37
2019-03-01T23:57:05.548Z,13.63
2019-03-01T23:59:31.845Z,10.23
